Russellville, Vermont
Current Conditions -  °F | °C
As of 8:35 AM on Monday 22 Dec 2014 (Local Time) from KRUT Reporting Station
Overcast Overcast  
Wind Chill: 25°   Ceiling: 3800
Heat Index: 25°   Visibility: 5mi
Dew Point: 23°   Wind: 0mph
Humidity: 93%   Direction: NA
Pressure: 30.34"   Gusts: NA
Location:  43.5432°N, 72.8545°W
Report Text: KRUT 221335Z 00000KT 5SM OVC038 M04/M05 A3034 RMK AO1
Loading
Personal Weather Stations






























Interactive Weather Map New forecast layout! Learn more

10-Day Weather Forecast

Advertisements
Track Severe Weather on mobile